createdAt,value
2017-10-26T00:00:58.775Z,100249.79
2017-10-26T00:05:02.205Z,100246.78
2017-10-26T00:09:05.686Z,100245.39
2017-10-26T00:13:09.956Z,100256.56
2017-10-26T00:17:13.407Z,100257.56
2017-10-26T00:21:17.590Z,100259.47
2017-10-26T00:25:21.030Z,100256.56
2017-10-26T00:29:25.218Z,100277.94
2017-10-26T00:33:28.669Z,100269.50
2017-10-26T00:37:32.854Z,100262.72
2017-10-26T00:41:36.313Z,100271.99
2017-10-26T00:45:40.502Z,100268.64
2017-10-26T00:49:43.943Z,100253.47
2017-10-26T00:53:48.133Z,100251.52
2017-10-26T00:57:51.884Z,100245.30
2017-10-26T01:01:55.286Z,100249.17
2017-10-26T01:05:59.819Z,100252.62
2017-10-26T01:10:03.195Z,100247.30
2017-10-26T01:14:06.612Z,100249.77
2017-10-26T01:18:10.035Z,100251.89
2017-10-26T01:22:14.274Z,100244.63
2017-10-26T01:26:17.679Z,100249.34
2017-10-26T01:30:21.366Z,100247.78
2017-10-26T01:34:25.519Z,100241.58
2017-10-26T01:38:28.939Z,100252.61
2017-10-26T01:42:32.339Z,100248.33
2017-10-26T01:46:36.030Z,100257.32
2017-10-26T01:50:39.422Z,100267.11
2017-10-26T01:54:43.675Z,100253.45
2017-10-26T01:58:47.054Z,100247.34
2017-10-26T02:02:51.562Z,100240.89
2017-10-26T02:06:54.963Z,100232.09
2017-10-26T02:10:58.719Z,100228.38
2017-10-26T02:15:02.152Z,100221.11
2017-10-26T02:19:05.842Z,100229.12
2017-10-26T02:23:09.251Z,100231.80
2017-10-26T02:27:13.468Z,100228.76
2017-10-26T02:31:34.560Z,100236.24
2017-10-26T02:35:37.999Z,100235.97
2017-10-26T02:39:41.420Z,100246.22
2017-10-26T02:43:44.872Z,100248.39
2017-10-26T02:47:48.288Z,100252.73
2017-10-26T02:51:51.744Z,100254.50
2017-10-26T02:55:55.192Z,100251.41
2017-10-26T02:59:58.659Z,100251.84
2017-10-26T03:04:02.097Z,100247.91
2017-10-26T03:08:05.555Z,100249.59
2017-10-26T03:12:08.969Z,100248.01
2017-10-26T03:16:12.398Z,100247.39
2017-10-26T03:20:15.824Z,100244.56
2017-10-26T03:24:19.670Z,100250.30
2017-10-26T03:28:23.855Z,100257.95
2017-10-26T03:32:27.615Z,100251.91
2017-10-26T03:36:31.041Z,100258.08
2017-10-26T03:40:34.490Z,100258.34
2017-10-26T03:44:37.922Z,100266.77
2017-10-26T03:48:41.359Z,100264.39
2017-10-26T03:52:44.778Z,100262.22
2017-10-26T03:56:48.240Z,100257.16
2017-10-26T04:00:51.648Z,100257.57
2017-10-26T04:04:55.877Z,100243.17
2017-10-26T04:09:00.069Z,100246.86
2017-10-26T04:13:03.568Z,100245.56
2017-10-26T04:17:07.003Z,100250.69
2017-10-26T04:21:10.447Z,100228.75
2017-10-26T04:25:13.864Z,100236.80
2017-10-26T04:29:17.620Z,100247.93
2017-10-26T04:33:21.033Z,100253.70
2017-10-26T04:37:24.778Z,100251.70
2017-10-26T04:41:28.191Z,100250.23
2017-10-26T04:45:31.668Z,100246.95
2017-10-26T04:49:35.848Z,100237.06
2017-10-26T04:53:39.625Z,100239.02
2017-10-26T04:57:43.034Z,100234.03
2017-10-26T05:01:46.532Z,100231.10
2017-10-26T05:05:50.719Z,100214.97
2017-10-26T05:09:54.200Z,100216.23
2017-10-26T05:13:58.392Z,100204.28
2017-10-26T05:18:02.610Z,100206.86
2017-10-26T05:22:06.807Z,100213.22
2017-10-26T05:26:10.331Z,100213.85
2017-10-26T05:30:13.746Z,100222.27
2017-10-26T05:34:17.942Z,100229.12
2017-10-26T05:38:21.338Z,100233.69
2017-10-26T05:42:25.063Z,100236.25
2017-10-26T05:46:28.471Z,100237.34
2017-10-26T05:50:31.921Z,100240.68
2017-10-26T05:54:35.339Z,100244.86
2017-10-26T05:58:38.797Z,100234.57
2017-10-26T06:02:42.223Z,100242.89
2017-10-26T06:06:46.436Z,100242.53
2017-10-26T06:10:50.622Z,100237.52
2017-10-26T06:14:54.065Z,100227.44
2017-10-26T06:18:58.275Z,100215.52
2017-10-26T06:23:01.720Z,100209.86
2017-10-26T06:27:05.143Z,100222.16
2017-10-26T06:31:08.615Z,100216.08
2017-10-26T06:35:12.806Z,100230.82
2017-10-26T06:39:16.259Z,100233.43
2017-10-26T06:43:20.424Z,100219.50
2017-10-26T06:47:24.206Z,100222.88
2017-10-26T06:51:27.619Z,100219.54
2017-10-26T06:55:31.069Z,100210.80
2017-10-26T06:59:34.495Z,100201.36
2017-10-26T07:03:37.935Z,100207.69
2017-10-26T07:07:41.345Z,100221.75
2017-10-26T07:11:44.787Z,100218.64
2017-10-26T07:15:48.208Z,100233.23
2017-10-26T07:19:51.964Z,100226.87
2017-10-26T07:23:55.405Z,100231.02
2017-10-26T07:27:58.842Z,100233.97
2017-10-26T07:32:02.252Z,100222.11
2017-10-26T07:36:05.964Z,100220.61
2017-10-26T07:40:09.375Z,100224.16
2017-10-26T07:44:13.126Z,100231.44
2017-10-26T07:48:16.543Z,100233.10
2017-10-26T07:52:19.987Z,100238.70
2017-10-26T07:56:23.408Z,100232.16
2017-10-26T08:00:26.848Z,100254.37
2017-10-26T08:04:30.282Z,100263.94
2017-10-26T08:08:34.000Z,100271.67
2017-10-26T08:12:37.507Z,100268.83
2017-10-26T08:16:40.959Z,100259.73
2017-10-26T08:20:45.115Z,100272.03
2017-10-26T08:24:49.324Z,100253.69
2017-10-26T08:28:52.750Z,100236.13
2017-10-26T08:32:56.197Z,100228.66
2017-10-26T08:36:59.620Z,100223.41
2017-10-26T08:41:03.359Z,100223.29
2017-10-26T08:45:06.769Z,100237.05
2017-10-26T08:49:10.223Z,100233.03
2017-10-26T08:53:13.641Z,100236.81
2017-10-26T08:57:17.071Z,100220.50
2017-10-26T09:01:20.489Z,100203.36
2017-10-26T09:05:23.917Z,100203.97
2017-10-26T09:09:27.318Z,100211.88
2017-10-26T09:13:30.771Z,100208.13
2017-10-26T09:17:34.190Z,100205.02
2017-10-26T09:21:38.391Z,100201.88
2017-10-26T09:25:41.788Z,100209.56
2017-10-26T09:29:45.259Z,100210.09
2017-10-26T09:33:48.683Z,100205.52
2017-10-26T09:37:52.112Z,100199.48
2017-10-26T09:41:55.520Z,100194.08
2017-10-26T09:45:58.944Z,100198.78
2017-10-26T09:50:02.344Z,100201.26
2017-10-26T09:54:05.808Z,100195.19
2017-10-26T09:58:09.218Z,100188.34
2017-10-26T10:02:12.673Z,100171.09
2017-10-26T10:06:16.091Z,100170.38
2017-10-26T10:10:20.295Z,100162.49
2017-10-26T10:14:23.698Z,100168.47
2017-10-26T10:18:27.143Z,100168.44
2017-10-26T10:22:30.547Z,100170.80
2017-10-26T10:26:34.029Z,100165.69
2017-10-26T10:30:38.216Z,100166.73
2017-10-26T10:34:41.640Z,100168.80
2017-10-26T10:38:45.051Z,100153.05
2017-10-26T10:42:48.476Z,100163.23
2017-10-26T10:46:52.646Z,100153.41
2017-10-26T10:50:56.105Z,100161.87
2017-10-26T10:55:00.271Z,100151.33
2017-10-26T10:59:09.192Z,100150.98
2017-10-26T11:03:12.588Z,100143.31
2017-10-26T11:07:16.034Z,100145.27
2017-10-26T11:11:19.423Z,100134.45
2017-10-26T11:15:22.846Z,100137.08
2017-10-26T11:19:26.256Z,100118.69
2017-10-26T11:23:29.687Z,100114.69
2017-10-26T11:27:33.094Z,100108.69
2017-10-26T11:31:36.531Z,100110.79
2017-10-26T11:35:39.977Z,100106.16
2017-10-26T11:39:44.144Z,100100.47
2017-10-26T11:43:48.337Z,100103.63
2017-10-26T11:47:51.775Z,100098.58
2017-10-26T11:51:55.952Z,100090.09
2017-10-26T11:55:59.379Z,100083.22
2017-10-26T12:00:02.769Z,100085.50
2017-10-26T12:04:06.235Z,100080.03
2017-10-26T12:08:09.738Z,100081.66
2017-10-26T12:12:13.286Z,100074.97
2017-10-26T12:16:16.736Z,100079.61
2017-10-26T12:20:21.021Z,100070.25
2017-10-26T12:24:24.502Z,100065.91
2017-10-26T12:28:27.996Z,100059.66
2017-10-26T12:32:31.452Z,100064.13
2017-10-26T12:36:35.292Z,100061.83
2017-10-26T12:40:38.723Z,100056.12
2017-10-26T12:44:43.198Z,100057.53
2017-10-26T12:48:46.604Z,100070.95
2017-10-26T12:52:50.059Z,100070.48
2017-10-26T12:56:54.217Z,100070.97
2017-10-26T13:00:57.662Z,100065.44
2017-10-26T13:05:01.096Z,100063.00
2017-10-26T13:09:05.630Z,100069.27
2017-10-26T13:13:09.796Z,100050.87
2017-10-26T13:17:13.248Z,100044.59
2017-10-26T13:21:16.633Z,100033.80
2017-10-26T13:25:20.396Z,100033.80
2017-10-26T13:29:23.821Z,100036.44
2017-10-26T13:33:27.292Z,100029.19
2017-10-26T13:37:31.466Z,100030.02
2017-10-26T13:41:34.909Z,100016.63
2017-10-26T13:45:38.360Z,100015.36
2017-10-26T13:49:41.822Z,100029.50
2017-10-26T13:53:46.003Z,100013.55
2017-10-26T13:57:49.446Z,100018.64
2017-10-26T14:01:52.859Z,100016.45
2017-10-26T14:05:56.307Z,100020.37
2017-10-26T14:09:59.834Z,100018.23
2017-10-26T14:14:03.287Z,100014.88
2017-10-26T14:18:07.478Z,100026.31
2017-10-26T14:22:10.926Z,100022.11
2017-10-26T14:26:15.156Z,100041.59
2017-10-26T14:30:19.374Z,100039.39
2017-10-26T14:34:22.799Z,100027.80
2017-10-26T14:38:26.267Z,100036.69
2017-10-26T14:42:29.697Z,100034.78
2017-10-26T14:46:33.967Z,100037.63
2017-10-26T14:50:37.362Z,100023.87
2017-10-26T14:54:40.815Z,100027.45
2017-10-26T14:58:45.020Z,100021.71
2017-10-26T15:02:48.452Z,100018.16
2017-10-26T15:06:51.881Z,100011.10
2017-10-26T15:13:16.888Z,99995.80
2017-10-26T15:17:20.370Z,99998.25
2017-10-26T15:21:23.909Z,99999.68
2017-10-26T15:25:27.365Z,100006.66
2017-10-26T15:29:30.880Z,100003.87
2017-10-26T15:33:34.613Z,100005.44
2017-10-26T15:37:38.102Z,100006.78
2017-10-26T15:45:07.978Z,100002.64
2017-10-26T15:51:11.467Z,100011.08
2017-10-26T15:57:15.100Z,100009.80
2017-10-26T16:03:18.702Z,100013.00
2017-10-26T16:09:22.957Z,100006.58
2017-10-26T16:15:26.565Z,100001.80
2017-10-26T16:21:30.043Z,99985.39
2017-10-26T16:27:33.556Z,99987.96
2017-10-26T16:33:37.057Z,99976.95
2017-10-26T16:39:40.588Z,99985.44
2017-10-26T16:45:45.020Z,100007.19
2017-10-26T16:51:49.651Z,100002.44
2017-10-26T16:57:53.470Z,99999.94
2017-10-26T17:03:58.045Z,100006.58
2017-10-26T17:10:02.348Z,100005.77
2017-10-26T17:16:06.319Z,100006.69
2017-10-26T17:22:09.819Z,100005.38
2017-10-26T17:28:13.824Z,100007.16
2017-10-26T17:34:17.458Z,99999.47
2017-10-26T17:40:21.712Z,99993.98
2017-10-26T17:46:25.382Z,99991.20
2017-10-26T17:52:28.999Z,99980.22
2017-10-26T17:58:32.483Z,99966.41
2017-10-26T18:04:35.968Z,99958.66
2017-10-26T18:10:40.534Z,99969.16
2017-10-26T18:16:45.170Z,99964.48
2017-10-26T18:22:48.942Z,99960.05
2017-10-26T18:28:52.436Z,99955.80
2017-10-26T18:34:56.721Z,99941.77
2017-10-26T18:41:00.387Z,99947.19
2017-10-26T18:47:03.903Z,99959.41
2017-10-26T18:53:07.384Z,99953.06
2017-10-26T18:59:10.899Z,99967.47
2017-10-26T19:05:14.439Z,99965.03
2017-10-26T19:11:18.169Z,99957.34
2017-10-26T19:17:21.663Z,99962.73
2017-10-26T19:23:25.151Z,99956.50
2017-10-26T19:29:29.389Z,99937.66
2017-10-26T19:35:32.864Z,99935.17
2017-10-26T19:41:37.394Z,99945.52
2017-10-26T19:47:40.886Z,99947.27
2017-10-26T19:53:44.509Z,99947.24
2017-10-26T19:59:48.409Z,99949.74
2017-10-26T20:05:52.682Z,99937.22
2017-10-26T20:11:56.176Z,99935.05
2017-10-26T20:17:59.673Z,99929.61
2017-10-26T20:24:03.388Z,99936.38
2017-10-26T20:30:07.116Z,99931.41
2017-10-26T20:36:11.399Z,99935.60
2017-10-26T20:42:15.734Z,99925.13
2017-10-26T20:48:19.603Z,99914.45
2017-10-26T20:54:28.667Z,99912.10
2017-10-26T21:00:37.715Z,99892.22
2017-10-26T21:06:41.194Z,99901.67
2017-10-26T21:12:50.241Z,99883.53
2017-10-26T21:18:54.697Z,99886.53
2017-10-26T21:24:58.316Z,99882.89
2017-10-26T21:31:01.809Z,99873.13
2017-10-26T21:37:05.305Z,99869.38
2017-10-26T21:43:08.796Z,99866.02
2017-10-26T21:49:12.345Z,99863.75
2017-10-26T21:55:16.040Z,99874.11
2017-10-26T22:01:20.205Z,99866.94
2017-10-26T22:07:23.693Z,99872.72
2017-10-26T22:13:27.170Z,99878.02
2017-10-26T22:19:30.695Z,99870.90
2017-10-26T22:25:34.521Z,99868.77
2017-10-26T22:31:38.006Z,99853.89
2017-10-26T22:37:41.484Z,99853.27
2017-10-26T22:43:44.973Z,99841.31
2017-10-26T22:49:48.694Z,99827.09
2017-10-26T22:55:52.942Z,99828.97
2017-10-26T23:01:57.492Z,99817.80
2017-10-26T23:08:00.973Z,99824.97
2017-10-26T23:14:05.575Z,99830.74
2017-10-26T23:20:09.141Z,99824.42
2017-10-26T23:26:14.152Z,99831.91
2017-10-26T23:32:18.469Z,99826.48
2017-10-26T23:38:21.959Z,99825.06
2017-10-26T23:44:25.459Z,99830.86
2017-10-26T23:50:29.700Z,99818.23
2017-10-26T23:56:33.443Z,99813.87
